Time;durP1;ratioP1;P1;durP2;ratioP2;P2;SDS_P1;SDS_P2;PMS_P1;PMS_P2;Temp;Humidity;BMP_temperature;BMP_pressure;BME280_temperature;BME280_humidity;BME280_pressure;Samples;Min_cycle;Max_cycle;Signal;HPM_P1;HPM_P2
2022/12/13 00:01:23;;;;;;;40.42;19.05;;;-3.50;99.90;;;;;;5075081;28;20204;-64
2022/12/13 00:03:53;;;;;;;40.42;19.95;;;-3.50;99.90;;;;;;5074913;28;20660;-64
2022/12/13 00:06:22;;;;;;;41.47;19.02;;;-3.50;99.90;;;;;;5075805;28;20204;-64
2022/12/13 00:08:50;;;;;;;34.85;17.80;;;-3.50;99.90;;;;;;5077248;28;20203;-64
2022/12/13 00:11:18;;;;;;;39.40;18.30;;;-3.50;99.90;;;;;;5075647;28;20227;-66
2022/12/13 00:13:46;;;;;;;35.30;18.00;;;-3.50;99.90;;;;;;5071153;28;20210;-64
2022/12/13 00:16:17;;;;;;;36.63;18.20;;;-3.50;99.90;;;;;;5064237;28;20646;-64
2022/12/13 00:18:48;;;;;;;37.25;19.10;;;-3.50;99.90;;;;;;5072819;28;20192;-64
2022/12/13 00:21:19;;;;;;;36.53;20.95;;;-3.40;99.90;;;;;;5068424;28;20192;-64
2022/12/13 00:23:48;;;;;;;34.85;18.58;;;-3.40;99.90;;;;;;5076133;28;20224;-64
2022/12/13 00:26:19;;;;;;;42.83;21.92;;;-3.40;99.90;;;;;;5076185;28;20196;-64
2022/12/13 00:28:48;;;;;;;42.15;20.65;;;-3.50;99.90;;;;;;5075015;28;20188;-64
2022/12/13 00:31:16;;;;;;;39.42;19.95;;;-3.50;99.90;;;;;;5075444;28;20226;-64
2022/12/13 00:33:45;;;;;;;37.92;18.70;;;-3.60;99.90;;;;;;5075090;28;20200;-64
2022/12/13 00:36:13;;;;;;;39.45;19.60;;;-3.60;99.90;;;;;;5074705;28;20196;-64
2022/12/13 00:38:41;;;;;;;35.33;18.92;;;-3.50;99.90;;;;;;5074474;28;20193;-64
2022/12/13 00:41:16;;;;;;;37.63;20.35;;;-3.60;99.90;;;;;;5069361;28;20643;-64
2022/12/13 00:43:44;;;;;;;40.72;19.02;;;-3.60;99.90;;;;;;5069379;28;20192;-64
2022/12/13 00:46:14;;;;;;;39.92;19.70;;;-3.60;99.90;;;;;;5066259;28;20188;-64
2022/12/13 00:48:42;;;;;;;54.60;21.60;;;-3.70;99.90;;;;;;5072398;28;20208;-64
2022/12/13 00:51:11;;;;;;;46.13;20.83;;;-3.70;99.90;;;;;;5061949;28;20227;-64
2022/12/13 00:53:39;;;;;;;35.28;18.30;;;-3.70;99.90;;;;;;5058845;28;20195;-64
2022/12/13 00:56:10;;;;;;;41.15;18.70;;;-3.60;99.90;;;;;;5074385;28;20195;-63
2022/12/13 00:58:40;;;;;;;37.15;17.98;;;-3.60;99.90;;;;;;5075309;28;20210;-63
2022/12/13 01:01:10;;;;;;;40.58;19.58;;;-3.70;99.90;;;;;;5074182;28;20184;-64
2022/12/13 01:03:39;;;;;;;39.38;18.58;;;-3.70;99.90;;;;;;5057327;28;20202;-64
2022/12/13 01:06:12;;;;;;;40.17;20.25;;;-3.80;99.90;;;;;;5074048;28;20202;-63
2022/12/13 01:08:40;;;;;;;42.45;20.45;;;-3.80;99.90;;;;;;5074267;28;20706;-64
2022/12/13 01:11:09;;;;;;;38.28;19.33;;;-3.80;99.90;;;;;;5073555;28;20208;-63
2022/12/13 01:13:39;;;;;;;41.30;20.17;;;-3.80;99.90;;;;;;5069229;28;20202;-63
2022/12/13 01:16:09;;;;;;;40.72;20.40;;;-3.80;99.90;;;;;;5074143;28;20283;-64
2022/12/13 01:18:37;;;;;;;35.70;18.88;;;-3.80;99.90;;;;;;5070255;28;20205;-64
2022/12/13 01:21:07;;;;;;;32.97;17.45;;;-3.80;99.90;;;;;;5070261;28;20201;-64
2022/12/13 01:23:35;;;;;;;40.38;19.58;;;-3.80;99.90;;;;;;5074046;28;20559;-64
2022/12/13 01:26:04;;;;;;;40.65;20.20;;;-3.80;99.90;;;;;;5073910;28;20215;-64
2022/12/13 01:28:33;;;;;;;36.83;18.95;;;-3.80;99.90;;;;;;5070799;28;20203;-64
2022/12/13 01:31:08;;;;;;;41.75;20.52;;;-3.70;99.90;;;;;;5068460;28;20222;-64
2022/12/13 01:33:36;;;;;;;39.38;20.08;;;-3.70;99.90;;;;;;5069609;28;20245;-64
2022/12/13 01:36:06;;;;;;;45.58;21.25;;;-3.70;99.90;;;;;;5072055;28;20761;-64
2022/12/13 01:38:35;;;;;;;43.35;19.67;;;-3.70;99.90;;;;;;5066930;28;20196;-65
2022/12/13 01:41:04;;;;;;;40.83;19.08;;;-3.80;99.90;;;;;;5074331;28;20196;-64
2022/12/13 01:43:51;;;;;;;31.52;17.65;;;-3.70;99.90;;;;;;5074208;28;20214;-64
2022/12/13 01:46:21;;;;;;;44.45;22.30;;;-3.70;99.90;;;;;;5074388;28;20191;-64
2022/12/13 01:48:57;;;;;;;43.17;19.80;;;-3.70;99.90;;;;;;5074037;28;20263;-65
2022/12/13 01:51:31;;;;;;;36.20;19.00;;;-3.70;99.90;;;;;;5062947;28;20702;-65
2022/12/13 01:54:02;;;;;;;41.55;20.17;;;-3.70;99.90;;;;;;5073823;28;20603;-64
2022/12/13 01:56:35;;;;;;;43.42;20.48;;;-3.70;99.90;;;;;;5054413;28;20192;-64
2022/12/13 01:59:05;;;;;;;38.33;21.75;;;-3.70;99.90;;;;;;5069386;28;20228;-65
2022/12/13 02:01:35;;;;;;;40.15;20.10;;;-3.70;99.90;;;;;;5072766;28;20239;-64
2022/12/13 02:04:02;;;;;;;44.60;21.27;;;-3.80;99.90;;;;;;5070729;28;20681;-64
2022/12/13 02:06:34;;;;;;;33.75;18.58;;;-3.80;99.90;;;;;;5071701;28;20204;-64
2022/12/13 02:09:05;;;;;;;40.92;19.90;;;-3.90;99.90;;;;;;5072171;28;20192;-65
2022/12/13 02:11:33;;;;;;;41.47;20.17;;;-3.90;99.90;;;;;;5071722;28;20216;-64
2022/12/13 02:14:02;;;;;;;40.83;21.17;;;-4.00;99.90;;;;;;5070561;28;20207;-64
2022/12/13 02:16:45;;;;;;;44.05;20.17;;;-4.00;99.90;;;;;;5064663;28;20253;-64
2022/12/13 02:19:54;;;;;;;38.65;17.45;;;-4.00;99.90;;;;;;5060317;28;20298;-64
2022/12/13 02:22:41;;;;;;;35.65;18.05;;;-4.10;99.90;;;;;;5067795;28;20230;-65
2022/12/13 02:25:42;;;;;;;41.10;18.95;;;-4.10;99.90;;;;;;5065980;28;20197;-64
2022/12/13 02:28:24;;;;;;;36.80;19.88;;;-4.20;99.90;;;;;;5059326;28;20196;-64
2022/12/13 02:30:59;;;;;;;43.03;18.48;;;-4.20;99.90;;;;;;5063431;28;20196;-64
2022/12/13 02:33:39;;;;;;;33.10;18.10;;;-4.30;99.90;;;;;;5057739;28;20192;-64
2022/12/13 02:36:13;;;;;;;40.28;19.63;;;-4.30;99.90;;;;;;5063852;28;20711;-63
2022/12/13 02:38:52;;;;;;;33.75;16.85;;;-4.40;99.90;;;;;;5073846;28;20248;-64
2022/12/13 02:41:26;;;;;;;41.60;21.05;;;-4.30;99.90;;;;;;5070175;28;20181;-64
2022/12/13 02:43:59;;;;;;;34.63;19.05;;;-4.30;99.90;;;;;;5069728;28;20199;-64
2022/12/13 02:46:33;;;;;;;34.13;17.30;;;-4.40;99.90;;;;;;5071579;28;20202;-63
2022/12/13 02:49:02;;;;;;;45.00;19.95;;;-4.30;99.90;;;;;;5065884;28;20657;-63
2022/12/13 02:51:31;;;;;;;30.42;16.05;;;-4.30;99.90;;;;;;5074327;28;20223;-64
2022/12/13 02:53:59;;;;;;;38.28;19.05;;;-4.30;99.90;;;;;;5055974;28;20201;-64
2022/12/13 02:56:27;;;;;;;43.55;19.83;;;-4.30;99.90;;;;;;5059218;28;20207;-64
2022/12/13 02:58:56;;;;;;;38.05;18.92;;;-4.30;99.90;;;;;;5058205;28;20229;-63
2022/12/13 03:01:42;;;;;;;40.53;18.58;;;-4.30;99.90;;;;;;5064551;28;20209;-64
2022/12/13 03:04:19;;;;;;;39.38;20.58;;;-4.30;99.90;;;;;;5066105;28;20192;-63
2022/12/13 03:06:56;;;;;;;36.25;17.35;;;-4.30;99.90;;;;;;5068467;28;20196;-63
2022/12/13 03:09:38;;;;;;;39.60;20.52;;;-4.30;99.90;;;;;;5071020;28;20203;-63
2022/12/13 03:15:10;;;;;;;39.88;20.70;;;-4.20;99.90;;;;;;5072499;28;20609;-64
2022/12/13 03:17:44;;;;;;;40.25;20.33;;;-4.30;99.90;;;;;;5058687;28;20184;-64
2022/12/13 03:20:17;;;;;;;41.33;18.48;;;-4.30;99.90;;;;;;5074682;28;20198;-64
2022/12/13 03:22:45;;;;;;;35.45;18.98;;;-4.40;99.90;;;;;;5070634;28;20216;-64
2022/12/13 03:25:14;;;;;;;36.95;18.75;;;-4.40;99.90;;;;;;5073283;28;20534;-64
2022/12/13 03:27:42;;;;;;;43.17;17.95;;;-4.40;99.90;;;;;;5061436;28;20192;-64
2022/12/13 03:30:11;;;;;;;39.33;19.25;;;-4.40;99.90;;;;;;5062804;28;20204;-64
2022/12/13 03:32:41;;;;;;;41.28;20.25;;;-4.40;99.90;;;;;;5068190;28;20218;-64
2022/12/13 03:35:10;;;;;;;44.35;19.85;;;-4.40;99.90;;;;;;5067590;28;20559;-64
2022/12/13 03:37:38;;;;;;;40.20;19.75;;;-4.40;99.90;;;;;;5069141;28;20196;-64
2022/12/13 03:40:07;;;;;;;45.10;21.83;;;-4.40;99.90;;;;;;5062780;28;20211;-64
2022/12/13 03:42:35;;;;;;;39.97;17.95;;;-4.40;99.90;;;;;;5065946;28;20572;-64
2022/12/13 03:45:03;;;;;;;43.08;20.25;;;-4.40;99.90;;;;;;5069896;28;20200;-64
2022/12/13 03:47:31;;;;;;;44.20;19.05;;;-4.40;99.90;;;;;;5073144;28;20203;-64
2022/12/13 03:50:00;;;;;;;38.22;19.85;;;-4.40;99.90;;;;;;5062684;28;20210;-64
2022/12/13 03:52:28;;;;;;;40.63;19.25;;;-4.40;99.90;;;;;;5068315;28;20219;-64
2022/12/13 03:54:56;;;;;;;35.58;19.10;;;-4.40;99.90;;;;;;5071884;28;20543;-64
2022/12/13 03:57:24;;;;;;;39.88;19.27;;;-4.30;99.90;;;;;;5070857;28;20200;-64
2022/12/13 03:59:52;;;;;;;37.83;20.17;;;-4.30;99.90;;;;;;5063291;28;20227;-64
2022/12/13 04:02:21;;;;;;;41.30;19.42;;;-4.40;99.90;;;;;;5058579;28;20291;-63
2022/12/13 04:04:49;;;;;;;40.55;19.23;;;-4.40;99.90;;;;;;5064294;28;20671;-63
2022/12/13 04:07:19;;;;;;;47.65;19.67;;;-4.40;99.90;;;;;;5063060;28;20213;-63
2022/12/13 04:09:47;;;;;;;43.88;20.10;;;-4.40;99.90;;;;;;5074280;28;20222;-63
2022/12/13 04:15:00;;;;;;;49.10;20.30;;;-4.40;99.90;;;;;;5074001;28;20558;-63
2022/12/13 04:17:28;;;;;;;48.25;21.23;;;-4.40;99.90;;;;;;5073370;28;20572;-63
2022/12/13 04:19:56;;;;;;;38.17;18.45;;;-4.50;99.90;;;;;;5062186;28;20203;-63
2022/12/13 04:22:25;;;;;;;36.08;19.80;;;-4.40;99.90;;;;;;5073018;28;20284;-63
2022/12/13 04:24:53;;;;;;;32.47;19.42;;;-4.50;99.90;;;;;;5073649;28;20200;-63
2022/12/13 04:27:21;;;;;;;40.50;18.23;;;-4.50;99.90;;;;;;5073413;28;20227;-63
2022/12/13 04:29:48;;;;;;;38.92;18.58;;;-4.50;99.90;;;;;;5072432;28;20211;-63
2022/12/13 04:32:16;;;;;;;42.05;19.00;;;-4.50;99.90;;;;;;5068672;28;20660;-63
2022/12/13 04:34:44;;;;;;;38.42;20.05;;;-4.50;99.90;;;;;;5066077;28;20203;-63
2022/12/13 04:37:12;;;;;;;41.80;19.08;;;-4.40;99.90;;;;;;5071215;28;20203;-63
2022/12/13 04:39:41;;;;;;;38.33;19.05;;;-4.40;99.90;;;;;;5063436;28;20204;-63
2022/12/13 04:42:09;;;;;;;42.42;20.08;;;-4.40;99.90;;;;;;5060735;28;20298;-63
2022/12/13 04:44:37;;;;;;;42.38;20.45;;;-4.40;99.90;;;;;;5072986;28;20585;-63
2022/12/13 04:47:05;;;;;;;42.13;19.77;;;-4.40;99.90;;;;;;5067956;28;20203;-63
2022/12/13 04:49:34;;;;;;;46.45;19.70;;;-4.40;99.90;;;;;;5069335;28;20278;-63
2022/12/13 04:52:02;;;;;;;41.75;20.42;;;-4.40;99.90;;;;;;5068072;28;20214;-63
2022/12/13 04:54:31;;;;;;;45.08;20.23;;;-4.40;99.90;;;;;;5058423;28;20296;-63
2022/12/13 04:57:00;;;;;;;38.80;21.02;;;-4.50;99.90;;;;;;5067641;28;20701;-64
2022/12/13 04:59:28;;;;;;;36.53;19.70;;;-4.50;99.90;;;;;;5065074;28;20233;-63
2022/12/13 05:01:56;;;;;;;36.33;18.90;;;-4.40;99.90;;;;;;5062043;28;20210;-63
2022/12/13 05:04:24;;;;;;;40.28;21.25;;;-4.30;99.90;;;;;;5055068;28;20570;-64
2022/12/13 05:06:52;;;;;;;38.95;19.13;;;-4.30;99.90;;;;;;5056809;28;20675;-63
2022/12/13 05:09:20;;;;;;;36.60;19.10;;;-4.40;99.90;;;;;;5072730;28;20230;-63
2022/12/13 05:11:47;;;;;;;41.08;18.95;;;-4.40;99.90;;;;;;5072695;28;20203;-63
2022/12/13 05:14:17;;;;;;;34.80;18.30;;;-4.50;99.90;;;;;;5057103;28;20227;-63
2022/12/13 05:16:45;;;;;;;45.72;19.70;;;-4.50;99.90;;;;;;5052796;28;20551;-64
2022/12/13 05:19:13;;;;;;;38.42;19.90;;;-4.50;99.90;;;;;;5057624;28;20565;-64
2022/12/13 05:21:40;;;;;;;41.10;19.95;;;-4.50;99.90;;;;;;5072770;28;20678;-64
2022/12/13 05:24:09;;;;;;;36.50;17.23;;;-4.50;99.90;;;;;;5072995;28;20257;-63
2022/12/13 05:26:37;;;;;;;39.95;19.38;;;-4.60;99.90;;;;;;5072934;28;20703;-63
2022/12/13 05:29:05;;;;;;;39.28;17.88;;;-4.60;99.90;;;;;;5072341;28;20204;-64
2022/12/13 05:31:34;;;;;;;37.97;16.73;;;-4.60;99.90;;;;;;5072611;28;20244;-64
2022/12/13 05:34:02;;;;;;;39.42;18.83;;;-4.60;99.90;;;;;;5068000;28;20213;-63
2022/12/13 05:36:30;;;;;;;43.95;19.65;;;-4.70;99.90;;;;;;5065183;28;20218;-63
2022/12/13 05:38:58;;;;;;;39.70;19.20;;;-4.70;99.90;;;;;;5072640;28;20215;-64
2022/12/13 05:41:29;;;;;;;36.13;18.20;;;-4.70;99.90;;;;;;5063728;28;20204;-63
2022/12/13 05:43:57;;;;;;;45.72;20.85;;;-4.80;99.90;;;;;;5063862;28;20562;-63
2022/12/13 05:46:25;;;;;;;39.70;19.38;;;-4.80;99.90;;;;;;5068040;28;20204;-63
2022/12/13 05:48:54;;;;;;;37.47;17.95;;;-4.70;99.90;;;;;;5052443;28;20204;-63
2022/12/13 05:51:22;;;;;;;41.85;19.60;;;-4.70;99.90;;;;;;5055927;28;20201;-63
2022/12/13 05:53:50;;;;;;;38.08;20.55;;;-4.80;99.90;;;;;;5052481;28;20224;-63
2022/12/13 05:56:18;;;;;;;35.58;18.50;;;-4.80;99.90;;;;;;5055186;28;20201;-63
2022/12/13 05:58:46;;;;;;;33.17;18.00;;;-4.80;99.90;;;;;;5051521;28;20588;-63
2022/12/13 06:01:15;;;;;;;38.05;18.52;;;-4.80;99.90;;;;;;5052680;28;20718;-63
2022/12/13 06:03:43;;;;;;;36.95;17.13;;;-4.90;99.90;;;;;;5062300;28;20189;-63
2022/12/13 06:06:16;;;;;;;41.08;18.35;;;-4.90;99.90;;;;;;5065855;28;20196;-63
2022/12/13 06:08:44;;;;;;;37.83;19.38;;;-4.90;99.90;;;;;;5058946;28;20192;-63
2022/12/13 06:11:14;;;;;;;38.63;19.45;;;-4.90;99.90;;;;;;5058329;28;20203;-63
2022/12/13 06:13:43;;;;;;;36.55;19.27;;;-4.90;99.90;;;;;;5060293;28;20224;-64
2022/12/13 06:16:13;;;;;;;35.55;18.50;;;-4.90;99.90;;;;;;5063779;28;20479;-63
2022/12/13 06:18:41;;;;;;;42.08;18.88;;;-4.90;99.90;;;;;;5075048;28;20555;-63
2022/12/13 06:21:09;;;;;;;41.78;19.15;;;-4.90;99.90;;;;;;5076626;28;20260;-64
2022/12/13 06:23:38;;;;;;;37.08;19.20;;;-4.90;99.90;;;;;;5061480;28;20217;-63
2022/12/13 06:26:07;;;;;;;35.22;19.17;;;-4.90;99.90;;;;;;5056169;28;20259;-63
2022/12/13 06:28:35;;;;;;;34.28;18.48;;;-5.00;99.90;;;;;;5055663;28;20197;-63
2022/12/13 06:31:04;;;;;;;36.50;18.42;;;-5.00;99.90;;;;;;5055865;28;20204;-63
2022/12/13 06:33:35;;;;;;;40.20;16.15;;;-4.90;99.90;;;;;;5067990;28;20221;-63
2022/12/13 06:36:05;;;;;;;40.55;19.02;;;-5.00;99.90;;;;;;5074488;28;20196;-63
2022/12/13 06:38:33;;;;;;;29.75;15.73;;;-5.00;99.90;;;;;;5059515;28;20248;-63
2022/12/13 06:41:10;;;;;;;35.45;18.40;;;-5.10;99.90;;;;;;5056717;28;20663;-63
2022/12/13 06:43:38;;;;;;;36.95;17.73;;;-5.10;99.90;;;;;;5055746;28;20191;-64
2022/12/13 06:46:06;;;;;;;37.22;18.85;;;-5.10;99.90;;;;;;5066790;28;20196;-63
2022/12/13 06:48:34;;;;;;;33.08;16.80;;;-5.10;99.90;;;;;;5071800;28;20220;-63
2022/12/13 06:51:02;;;;;;;35.58;17.92;;;-5.00;99.90;;;;;;5065337;28;20647;-63
2022/12/13 06:53:31;;;;;;;41.50;18.55;;;-5.00;99.90;;;;;;5054748;28;20281;-64
2022/12/13 06:56:04;;;;;;;36.90;17.60;;;-5.00;99.90;;;;;;5058066;28;20823;-64
2022/12/13 06:58:33;;;;;;;34.75;17.48;;;-5.00;99.90;;;;;;5054530;28;21157;-64
2022/12/13 07:01:03;;;;;;;34.30;18.73;;;-4.90;99.90;;;;;;5057746;28;20204;-63
2022/12/13 07:03:31;;;;;;;33.28;16.33;;;-5.00;99.90;;;;;;5053901;28;20208;-63
2022/12/13 07:06:00;;;;;;;36.90;18.90;;;-5.00;99.90;;;;;;5055047;28;20205;-64
2022/12/13 07:08:27;;;;;;;39.70;17.60;;;-5.00;99.90;;;;;;5054712;28;20215;-64
2022/12/13 07:10:56;;;;;;;41.95;17.05;;;-5.00;99.90;;;;;;5055317;28;20207;-65
2022/12/13 07:13:24;;;;;;;42.03;17.88;;;-5.00;99.90;;;;;;5054909;28;20734;-64
2022/12/13 07:15:53;;;;;;;41.45;18.15;;;-5.00;99.90;;;;;;5055270;28;20214;-65
2022/12/13 07:18:21;;;;;;;36.80;17.15;;;-5.00;99.90;;;;;;5057461;28;20204;-63
2022/12/13 07:20:49;;;;;;;37.80;16.25;;;-5.00;99.90;;;;;;5054450;28;20206;-62
2022/12/13 07:23:17;;;;;;;33.15;17.13;;;-5.10;99.90;;;;;;5052829;28;20597;-62
2022/12/13 07:25:52;;;;;;;32.35;16.77;;;-5.10;99.90;;;;;;5055166;28;20215;-63
2022/12/13 07:28:21;;;;;;;39.03;17.45;;;-5.00;99.90;;;;;;5054501;28;20184;-63
2022/12/13 07:30:49;;;;;;;35.17;17.80;;;-5.00;99.90;;;;;;5055797;28;20205;-63
2022/12/13 07:33:18;;;;;;;31.02;18.38;;;-5.00;99.90;;;;;;5060692;28;20237;-64
2022/12/13 07:35:46;;;;;;;37.67;18.67;;;-5.00;99.90;;;;;;5074947;28;20204;-63
2022/12/13 07:38:14;;;;;;;38.42;18.60;;;-5.00;99.90;;;;;;5074866;28;20202;-64
2022/12/13 07:40:42;;;;;;;34.08;17.80;;;-5.00;99.90;;;;;;5075282;28;20207;-63
2022/12/13 07:43:10;;;;;;;31.20;17.23;;;-5.00;99.90;;;;;;5074768;28;20283;-63
2022/12/13 07:45:38;;;;;;;38.87;21.97;;;-5.00;99.90;;;;;;5073604;28;20731;-64
2022/12/13 07:48:07;;;;;;;39.47;19.67;;;-5.00;99.90;;;;;;5074652;28;20635;-64
2022/12/13 07:50:36;;;;;;;34.05;17.30;;;-5.00;99.90;;;;;;5074390;28;20208;-64
2022/12/13 07:53:06;;;;;;;32.35;17.45;;;-5.00;99.90;;;;;;5074637;28;20216;-64
2022/12/13 07:55:34;;;;;;;41.47;18.55;;;-5.00;99.90;;;;;;5073419;28;20223;-64
2022/12/13 07:58:04;;;;;;;35.60;18.85;;;-5.00;99.90;;;;;;5074440;28;20218;-64
2022/12/13 08:00:32;;;;;;;37.90;17.00;;;-4.90;99.90;;;;;;5074241;28;20242;-66
2022/12/13 08:03:00;;;;;;;33.50;16.65;;;-4.90;99.90;;;;;;5072351;28;20206;-65
2022/12/13 08:05:28;;;;;;;39.70;16.92;;;-4.90;99.90;;;;;;5074043;28;20683;-65
2022/12/13 08:07:59;;;;;;;40.08;19.38;;;-4.90;99.90;;;;;;5074578;28;20207;-64
2022/12/13 08:10:27;;;;;;;34.05;16.85;;;-4.80;99.90;;;;;;5073817;28;20641;-64
2022/12/13 08:12:55;;;;;;;33.03;17.00;;;-4.80;99.90;;;;;;5068943;28;20242;-64
2022/12/13 08:15:24;;;;;;;30.70;17.63;;;-4.80;99.90;;;;;;5053931;28;20577;-64
2022/12/13 08:17:55;;;;;;;35.65;17.02;;;-4.80;99.90;;;;;;5053408;28;20204;-64
2022/12/13 08:20:23;;;;;;;37.08;16.67;;;-4.80;99.90;;;;;;5053652;28;20189;-63
2022/12/13 08:22:55;;;;;;;33.65;17.52;;;-4.70;99.90;;;;;;5052525;28;20772;-62
2022/12/13 08:25:25;;;;;;;34.28;17.02;;;-4.70;99.90;;;;;;5060258;28;20651;-64
2022/12/13 08:27:53;;;;;;;33.33;18.80;;;-4.60;99.90;;;;;;5073566;28;20210;-63
2022/12/13 08:30:21;;;;;;;31.83;16.88;;;-4.60;99.90;;;;;;5061397;28;20221;-65
2022/12/13 08:32:49;;;;;;;33.15;16.25;;;-4.50;99.90;;;;;;5054153;28;20204;-64
2022/12/13 08:35:17;;;;;;;32.40;16.67;;;-4.40;99.90;;;;;;5051979;28;20216;-64
2022/12/13 08:37:45;;;;;;;28.17;15.43;;;-4.30;99.90;;;;;;5053532;28;20218;-65
2022/12/13 08:40:13;;;;;;;47.03;20.23;;;-4.30;99.90;;;;;;5054226;28;20209;-65
2022/12/13 08:42:42;;;;;;;35.08;18.60;;;-4.30;99.90;;;;;;5053280;28;20207;-64
2022/12/13 08:45:11;;;;;;;33.92;16.42;;;-4.10;99.90;;;;;;5066249;28;20216;-64
2022/12/13 08:47:39;;;;;;;32.83;19.20;;;-4.10;99.90;;;;;;5072841;28;20208;-64
2022/12/13 08:50:07;;;;;;;36.40;18.20;;;-4.10;99.90;;;;;;5073320;28;20724;-65
2022/12/13 08:52:36;;;;;;;36.72;18.17;;;-4.00;99.90;;;;;;5072967;28;20226;-65
2022/12/13 08:55:04;;;;;;;34.78;18.17;;;-3.90;99.90;;;;;;5072946;28;20232;-65
2022/12/13 08:57:35;;;;;;;37.15;19.65;;;-3.80;99.90;;;;;;5072975;28;20698;-65
2022/12/13 09:00:06;;;;;;;30.73;17.70;;;-3.70;99.90;;;;;;5072888;28;20241;-65
2022/12/13 09:02:34;;;;;;;36.85;16.80;;;-3.60;99.90;;;;;;5072070;28;20253;-65
2022/12/13 09:05:02;;;;;;;31.48;17.85;;;-3.60;99.90;;;;;;5070955;28;20204;-65
2022/12/13 09:07:30;;;;;;;37.88;17.92;;;-3.60;99.90;;;;;;5071404;28;20215;-64
2022/12/13 09:09:58;;;;;;;41.92;18.20;;;-3.60;99.90;;;;;;5072769;28;20210;-67
2022/12/13 09:12:26;;;;;;;35.45;18.25;;;-3.60;99.90;;;;;;5072616;28;20217;-65
2022/12/13 09:14:55;;;;;;;37.08;17.85;;;-3.50;99.90;;;;;;5072712;28;20220;-65
2022/12/13 09:17:25;;;;;;;31.80;16.77;;;-3.50;99.90;;;;;;5073078;28;20596;-65
2022/12/13 09:19:53;;;;;;;31.50;16.63;;;-3.40;99.90;;;;;;5066857;28;20200;-65
2022/12/13 09:22:21;;;;;;;35.10;17.90;;;-3.40;99.90;;;;;;5073147;28;20228;-64
2022/12/13 09:24:49;;;;;;;38.95;18.60;;;-3.30;99.90;;;;;;5072510;28;20204;-63
2022/12/13 09:27:17;;;;;;;36.83;20.33;;;-3.30;99.90;;;;;;5072938;28;20558;-64
2022/12/13 09:29:46;;;;;;;37.20;17.35;;;-3.20;99.90;;;;;;5072185;28;20200;-64
2022/12/13 09:32:15;;;;;;;32.88;16.35;;;-3.10;99.90;;;;;;5072714;28;20208;-63
2022/12/13 09:34:44;;;;;;;31.23;17.27;;;-3.10;99.90;;;;;;5072377;28;20215;-64
2022/12/13 09:37:12;;;;;;;34.83;15.90;;;-3.10;99.90;;;;;;5072657;28;20218;-63
2022/12/13 09:39:40;;;;;;;37.40;18.02;;;-3.10;99.90;;;;;;5072612;28;20210;-64
2022/12/13 09:42:18;;;;;;;32.97;18.13;;;-3.10;99.90;;;;;;5072126;28;20208;-64
2022/12/13 09:44:51;;;;;;;35.60;18.90;;;-3.00;99.90;;;;;;5072291;28;20184;-64
2022/12/13 09:47:30;;;;;;;26.98;15.73;;;-2.90;99.90;;;;;;5072649;28;20210;-64
2022/12/13 09:50:01;;;;;;;34.47;17.75;;;-2.90;99.90;;;;;;5072183;28;20195;-64
2022/12/13 09:52:36;;;;;;;28.63;16.33;;;-2.90;99.90;;;;;;5072129;28;20198;-63
2022/12/13 09:55:19;;;;;;;28.17;16.45;;;-2.80;99.90;;;;;;5071917;28;20700;-63
2022/12/13 09:57:48;;;;;;;30.83;15.30;;;-2.80;99.90;;;;;;5072786;28;20214;-65
2022/12/13 10:00:20;;;;;;;40.75;16.55;;;-2.80;99.90;;;;;;5070514;28;20231;-64
2022/12/13 10:02:50;;;;;;;32.38;15.68;;;-2.80;99.90;;;;;;5071370;28;20188;-63
2022/12/13 10:05:31;;;;;;;29.58;17.40;;;-2.80;99.90;;;;;;5071931;28;20188;-64
2022/12/13 10:08:04;;;;;;;34.20;18.55;;;-2.60;99.90;;;;;;5073811;28;20191;-65
2022/12/13 10:10:32;;;;;;;38.70;19.23;;;-2.60;99.90;;;;;;5072220;28;20207;-64
2022/12/13 10:13:09;;;;;;;30.73;15.73;;;-2.60;99.90;;;;;;5072900;28;20215;-64
2022/12/13 10:15:40;;;;;;;34.50;19.13;;;-2.60;99.90;;;;;;5072690;28;20203;-65
2022/12/13 10:18:12;;;;;;;38.15;18.63;;;-2.40;99.90;;;;;;5072922;28;20188;-64
2022/12/13 10:20:42;;;;;;;32.92;17.13;;;-2.50;99.90;;;;;;5072171;28;20200;-65
2022/12/13 10:23:11;;;;;;;34.10;17.83;;;-2.50;99.90;;;;;;5072326;28;20585;-65
2022/12/13 10:25:46;;;;;;;22.13;11.82;;;-2.50;99.90;;;;;;5072483;28;20195;-64
2022/12/13 10:28:16;;;;;;;24.17;15.40;;;-2.40;99.90;;;;;;5072108;28;20210;-64
2022/12/13 10:30:45;;;;;;;29.40;14.80;;;-2.30;99.90;;;;;;5072305;28;20560;-65
2022/12/13 10:33:23;;;;;;;35.10;15.70;;;-2.30;99.90;;;;;;5070362;28;20204;-64
2022/12/13 10:36:08;;;;;;;24.25;15.63;;;-2.20;99.90;;;;;;5072391;28;20276;-64
2022/12/13 10:38:38;;;;;;;23.13;12.73;;;-2.20;99.90;;;;;;5073503;28;20195;-64
2022/12/13 10:41:31;;;;;;;22.90;13.38;;;-2.00;99.90;;;;;;5073696;28;20235;-64
2022/12/13 10:44:15;;;;;;;27.27;14.05;;;-1.90;99.90;;;;;;5073568;28;20176;-65
2022/12/13 10:46:50;;;;;;;24.45;13.52;;;-1.90;99.90;;;;;;5073597;28;20183;-64
2022/12/13 10:49:20;;;;;;;23.35;14.00;;;-1.80;99.90;;;;;;5065424;28;20209;-66
2022/12/13 10:51:52;;;;;;;22.90;14.13;;;-1.70;99.90;;;;;;5072793;28;20249;-64
2022/12/13 10:54:28;;;;;;;21.05;11.60;;;-1.70;99.90;;;;;;5072223;28;20240;-64
2022/12/13 10:56:59;;;;;;;31.25;13.85;;;-1.80;99.90;;;;;;5072707;28;20285;-65
2022/12/13 10:59:33;;;;;;;24.10;13.02;;;-1.80;99.90;;;;;;5076136;28;20232;-65
2022/12/13 11:02:02;;;;;;;20.75;13.07;;;-1.70;99.90;;;;;;5075763;28;20189;-64
2022/12/13 11:04:33;;;;;;;21.25;12.75;;;-1.60;99.90;;;;;;5060290;28;20643;-63
2022/12/13 11:07:23;;;;;;;23.90;13.95;;;-1.80;99.90;;;;;;5060172;28;20192;-64
2022/12/13 11:09:51;;;;;;;23.15;12.63;;;-1.80;99.90;;;;;;5070716;28;20202;-62
2022/12/13 11:12:23;;;;;;;21.65;12.80;;;-1.80;99.90;;;;;;5071857;28;20199;-62
2022/12/13 11:14:57;;;;;;;23.05;13.73;;;-1.80;99.90;;;;;;5071751;28;20204;-62
2022/12/13 11:17:26;;;;;;;22.83;13.20;;;-1.70;99.90;;;;;;5070302;28;20204;-61
2022/12/13 11:19:57;;;;;;;18.77;13.18;;;-1.60;99.90;;;;;;5073915;28;20551;-61
2022/12/13 11:22:29;;;;;;;29.38;13.88;;;-1.50;99.90;;;;;;5073960;28;20219;-64
2022/12/13 11:25:02;;;;;;;18.33;11.85;;;-1.50;99.90;;;;;;5060740;28;20677;-62
2022/12/13 11:27:47;;;;;;;24.77;12.15;;;-1.70;99.90;;;;;;5067337;28;20199;-62
2022/12/13 11:30:21;;;;;;;17.63;11.75;;;-1.80;99.90;;;;;;5053275;28;20188;-65
2022/12/13 11:33:11;;;;;;;28.63;13.02;;;-1.60;99.90;;;;;;5053490;28;20246;-65
2022/12/13 11:35:56;;;;;;;21.85;12.30;;;-1.60;99.90;;;;;;5053881;28;20205;-65
2022/12/13 11:38:31;;;;;;;19.30;12.70;;;-1.60;99.90;;;;;;5055077;28;20203;-64
2022/12/13 11:41:02;;;;;;;23.65;12.75;;;-1.50;99.90;;;;;;5048564;28;20192;-64
2022/12/13 11:43:37;;;;;;;22.48;12.15;;;-1.40;99.90;;;;;;5074155;28;20184;-63
2022/12/13 11:46:13;;;;;;;19.30;13.48;;;-1.30;99.90;;;;;;5074831;28;20271;-62
2022/12/13 11:48:46;;;;;;;22.17;14.02;;;-1.30;99.90;;;;;;5075759;28;20221;-64
2022/12/13 11:51:22;;;;;;;23.70;13.13;;;-1.10;99.90;;;;;;5075895;28;20188;-64
2022/12/13 11:53:58;;;;;;;21.42;11.95;;;-1.10;99.90;;;;;;5076603;28;20192;-63
2022/12/13 11:56:30;;;;;;;19.60;13.25;;;-1.00;99.90;;;;;;5076480;28;20204;-64
2022/12/13 11:59:09;;;;;;;16.85;12.15;;;-1.20;99.90;;;;;;5058779;28;20311;-65
2022/12/13 12:01:42;;;;;;;21.83;13.18;;;-1.10;99.90;;;;;;5056410;28;20203;-66
2022/12/13 12:04:19;;;;;;;23.33;11.48;;;-1.00;99.90;;;;;;5059538;28;20648;-65
2022/12/13 12:06:53;;;;;;;28.63;12.07;;;-1.10;99.90;;;;;;5061025;28;20506;-65
2022/12/13 12:09:27;;;;;;;28.55;12.45;;;-1.10;99.90;;;;;;5060076;28;20206;-65
2022/12/13 12:12:01;;;;;;;23.38;13.70;;;-0.90;99.90;;;;;;5062823;28;20204;-66
2022/12/13 12:14:39;;;;;;;21.65;12.18;;;-0.90;99.90;;;;;;5058864;28;20200;-66
2022/12/13 12:17:13;;;;;;;20.65;13.05;;;-0.80;99.90;;;;;;5061473;28;20212;-66
2022/12/13 12:19:46;;;;;;;18.38;12.48;;;-0.80;99.90;;;;;;5057391;28;20201;-66
2022/12/13 12:22:27;;;;;;;18.95;11.48;;;-0.80;99.90;;;;;;5066290;28;20259;-66
2022/12/13 12:25:11;;;;;;;17.92;11.55;;;-0.90;99.90;;;;;;5060706;28;20199;-66
2022/12/13 12:27:48;;;;;;;22.23;13.43;;;-0.70;99.90;;;;;;5060559;28;20192;-65
2022/12/13 12:30:20;;;;;;;22.67;13.82;;;-0.50;99.90;;;;;;5061377;28;20185;-66
2022/12/13 12:32:53;;;;;;;20.27;12.55;;;-0.40;99.90;;;;;;5066809;28;20199;-65
2022/12/13 12:35:39;;;;;;;23.33;12.73;;;-0.30;99.90;;;;;;5064371;28;20198;-65
2022/12/13 12:38:20;;;;;;;19.42;12.48;;;-0.20;99.90;;;;;;5060728;28;20200;-66
2022/12/13 12:41:08;;;;;;;22.52;13.95;;;-0.30;99.90;;;;;;5061366;28;20190;-65
2022/12/13 12:43:39;;;;;;;21.48;12.85;;;-0.20;99.90;;;;;;5063092;28;20196;-65
2022/12/13 12:46:27;;;;;;;21.95;13.60;;;0.10;99.90;;;;;;5062606;28;20250;-65
2022/12/13 12:49:23;;;;;;;20.98;13.52;;;0.20;99.90;;;;;;5060939;28;20188;-65
2022/12/13 12:51:59;;;;;;;22.13;13.30;;;0.10;99.90;;;;;;5052363;28;20201;-65
2022/12/13 12:54:41;;;;;;;23.33;14.70;;;0.00;99.90;;;;;;5059342;28;20581;-65